Time;durP1;ratioP1;P1;durP2;ratioP2;P2;SDS_P1;SDS_P2;PMS_P1;PMS_P2;Temp;Humidity;BMP_temperature;BMP_pressure;BME280_temperature;BME280_humidity;BME280_pressure;Samples;Min_cycle;Max_cycle;Signal;HPM_P1;HPM_P2
2023/12/07 00:02:17;;;;;;;7.28;4.95;;;;;;;;;;5107685;28;20039;-72
2023/12/07 00:04:43;;;;;;;10.65;5.55;;;;;;;;;;5098844;28;20020;-73
2023/12/07 00:07:09;;;;;;;8.57;4.88;;;;;;;;;;5108637;28;20035;-72
2023/12/07 00:09:35;;;;;;;8.75;4.88;;;;;;;;;;5101725;28;20032;-72
2023/12/07 00:12:01;;;;;;;6.72;5.15;;;;;;;;;;5102874;28;20040;-71
2023/12/07 00:14:27;;;;;;;8.82;5.10;;;;;;;;;;5105995;28;20031;-72
2023/12/07 00:16:54;;;;;;;16.27;5.43;;;;;;;;;;5110941;28;20476;-72
2023/12/07 00:19:20;;;;;;;14.13;5.40;;;;;;;;;;5102254;28;20538;-72
2023/12/07 00:21:46;;;;;;;10.85;6.05;;;;;;;;;;5108479;28;20044;-72
2023/12/07 00:24:12;;;;;;;20.63;12.50;;;;;;;;;;5102122;28;20024;-72
2023/12/07 00:26:38;;;;;;;14.00;7.20;;;;;;;;;;5109251;28;20036;-73
2023/12/07 00:29:04;;;;;;;10.38;6.38;;;;;;;;;;5094119;28;20431;-72
2023/12/07 00:31:30;;;;;;;12.88;6.38;;;;;;;;;;5100151;28;20051;-74
2023/12/07 00:33:56;;;;;;;8.63;6.32;;;;;;;;;;5096228;28;20032;-74
2023/12/07 00:36:22;;;;;;;10.13;6.65;;;;;;;;;;5099950;28;20084;-74
2023/12/07 00:38:48;;;;;;;7.82;6.22;;;;;;;;;;5109569;28;20096;-74
2023/12/07 00:41:14;;;;;;;9.35;7.00;;;;;;;;;;5110355;28;20035;-74
2023/12/07 00:43:40;;;;;;;10.88;6.82;;;;;;;;;;5109569;28;20124;-74
2023/12/07 00:46:10;;;;;;;57.53;7.88;;;;;;;;;;5102163;28;20032;-74
2023/12/07 00:48:36;;;;;;;9.05;6.53;;;;;;;;;;5099115;28;20473;-74
2023/12/07 00:51:02;;;;;;;9.02;6.55;;;;;;;;;;5110838;28;20059;-74
2023/12/07 00:53:28;;;;;;;10.88;7.32;;;;;;;;;;5110968;28;20035;-74
2023/12/07 00:55:54;;;;;;;9.75;6.35;;;;;;;;;;5110618;28;20032;-73
2023/12/07 00:58:21;;;;;;;10.00;6.78;;;;;;;;;;5109486;28;20036;-73
2023/12/07 01:00:47;;;;;;;8.18;6.32;;;;;;;;;;5107944;28;20552;-73
2023/12/07 01:03:13;;;;;;;9.63;7.40;;;;;;;;;;5109982;28;20054;-73
2023/12/07 01:05:39;;;;;;;9.85;6.82;;;;;;;;;;5106722;28;20027;-73
2023/12/07 01:08:06;;;;;;;11.57;6.80;;;;;;;;;;5110671;28;20031;-73
2023/12/07 01:10:32;;;;;;;10.73;6.70;;;;;;;;;;5109559;28;20028;-74
2023/12/07 01:12:58;;;;;;;11.25;7.45;;;;;;;;;;5110571;28;20059;-73
2023/12/07 01:15:24;;;;;;;10.50;7.10;;;;;;;;;;5107026;28;20085;-73
2023/12/07 01:17:50;;;;;;;10.75;6.43;;;;;;;;;;5101022;28;20024;-74
2023/12/07 01:20:17;;;;;;;12.85;7.20;;;;;;;;;;5106731;28;20028;-74
2023/12/07 01:22:43;;;;;;;13.52;7.50;;;;;;;;;;5109826;28;20081;-74
2023/12/07 01:25:09;;;;;;;11.32;7.35;;;;;;;;;;5110751;28;20085;-74
2023/12/07 01:27:35;;;;;;;9.60;7.28;;;;;;;;;;5108025;28;20035;-74
2023/12/07 01:30:01;;;;;;;8.15;6.40;;;;;;;;;;5102812;28;20032;-74
2023/12/07 01:32:27;;;;;;;10.40;6.60;;;;;;;;;;5101299;28;20032;-74
2023/12/07 01:34:54;;;;;;;11.13;7.63;;;;;;;;;;5109505;28;20031;-74
2023/12/07 01:37:20;;;;;;;11.20;7.22;;;;;;;;;;5110107;28;20542;-74
2023/12/07 01:39:46;;;;;;;9.60;7.25;;;;;;;;;;5109306;28;20480;-74
2023/12/07 01:42:12;;;;;;;9.35;6.78;;;;;;;;;;5108818;28;20119;-74
2023/12/07 01:44:39;;;;;;;9.48;7.80;;;;;;;;;;5098602;28;20035;-74
2023/12/07 01:47:07;;;;;;;12.32;7.22;;;;;;;;;;5107401;28;20047;-74
2023/12/07 01:49:34;;;;;;;10.35;7.88;;;;;;;;;;5109983;28;20083;-74
2023/12/07 01:52:00;;;;;;;11.57;7.82;;;;;;;;;;5100614;28;20039;-74
2023/12/07 01:54:26;;;;;;;13.95;8.02;;;;;;;;;;5108648;28;20085;-74
2023/12/07 01:56:52;;;;;;;12.18;8.48;;;;;;;;;;5108823;28;20035;-74
2023/12/07 01:59:18;;;;;;;18.33;10.23;;;;;;;;;;5109343;28;20098;-74
2023/12/07 02:01:45;;;;;;;11.75;8.75;;;;;;;;;;5101829;28;20550;-74
2023/12/07 02:04:11;;;;;;;10.95;8.02;;;;;;;;;;5105359;28;20036;-74
2023/12/07 02:06:37;;;;;;;12.60;8.27;;;;;;;;;;5101172;28;20073;-73
2023/12/07 02:09:03;;;;;;;10.70;8.27;;;;;;;;;;5110090;28;20027;-73
2023/12/07 02:11:29;;;;;;;12.90;8.57;;;;;;;;;;5110004;28;20144;-73
2023/12/07 02:13:57;;;;;;;9.95;7.47;;;;;;;;;;5108892;28;20032;-73
2023/12/07 02:16:40;;;;;;;9.63;7.90;;;;;;;;;;5098085;28;20024;-73
2023/12/07 02:19:09;;;;;;;10.60;7.65;;;;;;;;;;5107396;28;20562;-73
2023/12/07 02:21:37;;;;;;;11.07;7.88;;;;;;;;;;5112601;28;20032;-74
2023/12/07 02:24:03;;;;;;;11.20;8.48;;;;;;;;;;5112757;28;20031;-75
2023/12/07 02:26:37;;;;;;;9.75;7.45;;;;;;;;;;5112968;28;20023;-74
2023/12/07 02:29:03;;;;;;;12.75;7.90;;;;;;;;;;5112160;28;20055;-74
2023/12/07 02:31:29;;;;;;;16.55;7.80;;;;;;;;;;5102110;28;20043;-74
2023/12/07 02:33:56;;;;;;;11.93;7.32;;;;;;;;;;5107535;28;20572;-74
2023/12/07 02:36:24;;;;;;;15.45;8.32;;;;;;;;;;5106142;28;20537;-74
2023/12/07 02:38:51;;;;;;;12.20;7.63;;;;;;;;;;5097495;28;20031;-74
2023/12/07 02:41:19;;;;;;;12.55;9.25;;;;;;;;;;5113600;28;20480;-74
2023/12/07 02:43:46;;;;;;;10.73;8.35;;;;;;;;;;5112712;28;20101;-74
2023/12/07 02:46:12;;;;;;;13.00;8.30;;;;;;;;;;5112752;28;20043;-74
2023/12/07 02:48:38;;;;;;;17.73;8.57;;;;;;;;;;5100851;28;20047;-74
2023/12/07 02:51:04;;;;;;;12.43;8.68;;;;;;;;;;5097423;28;20580;-75
2023/12/07 02:53:30;;;;;;;12.48;7.65;;;;;;;;;;5098890;28;20015;-74
2023/12/07 02:55:57;;;;;;;13.55;8.13;;;;;;;;;;5111866;28;20035;-75
2023/12/07 02:58:23;;;;;;;13.75;8.30;;;;;;;;;;5110500;28;20043;-74
2023/12/07 03:00:49;;;;;;;12.45;8.48;;;;;;;;;;5112044;28;20031;-74
2023/12/07 03:03:15;;;;;;;12.38;8.68;;;;;;;;;;5113094;28;20115;-73
2023/12/07 03:05:41;;;;;;;11.55;8.18;;;;;;;;;;5108523;28;20376;-75
2023/12/07 03:08:07;;;;;;;15.43;8.75;;;;;;;;;;5113248;28;20471;-74
2023/12/07 03:10:33;;;;;;;12.25;8.85;;;;;;;;;;5110998;28;20474;-74
2023/12/07 03:12:59;;;;;;;13.90;7.90;;;;;;;;;;5110736;28;20032;-74
2023/12/07 03:15:26;;;;;;;8.10;6.70;;;;;;;;;;5109667;28;20401;-74
2023/12/07 03:17:52;;;;;;;14.13;8.10;;;;;;;;;;5111505;28;20051;-74
2023/12/07 03:20:18;;;;;;;13.15;8.05;;;;;;;;;;5109122;28;20122;-74
2023/12/07 03:22:44;;;;;;;12.75;8.13;;;;;;;;;;5111079;28;20473;-74
2023/12/07 03:25:11;;;;;;;12.38;8.55;;;;;;;;;;5111933;28;20119;-74
2023/12/07 03:27:37;;;;;;;11.95;8.05;;;;;;;;;;5111396;28;20031;-76
2023/12/07 03:30:04;;;;;;;14.48;7.75;;;;;;;;;;5103857;28;20035;-73
2023/12/07 03:32:30;;;;;;;15.52;8.30;;;;;;;;;;5104411;28;20039;-74
2023/12/07 03:34:56;;;;;;;12.45;8.13;;;;;;;;;;5110369;28;20036;-74
2023/12/07 03:37:23;;;;;;;19.77;7.38;;;;;;;;;;5112187;28;20039;-73
2023/12/07 03:39:49;;;;;;;15.05;8.00;;;;;;;;;;5111755;28;20452;-73
2023/12/07 03:42:15;;;;;;;10.77;7.32;;;;;;;;;;5102432;28;20073;-73
2023/12/07 03:44:41;;;;;;;10.23;6.78;;;;;;;;;;5102635;28;20496;-73
2023/12/07 03:47:08;;;;;;;10.18;7.60;;;;;;;;;;5103075;28;20043;-72
2023/12/07 03:49:34;;;;;;;12.30;7.72;;;;;;;;;;5101488;28;20508;-72
2023/12/07 03:52:00;;;;;;;11.07;7.50;;;;;;;;;;5107904;28;20054;-73
2023/12/07 03:54:27;;;;;;;12.80;7.53;;;;;;;;;;5092546;28;20481;-74
2023/12/07 03:56:53;;;;;;;14.63;8.50;;;;;;;;;;5096539;28;20359;-72
2023/12/07 03:59:19;;;;;;;120.95;62.65;;;;;;;;;;5102706;28;20367;-71
2023/12/07 04:01:45;;;;;;;16.38;9.25;;;;;;;;;;5104534;28;20377;-74
2023/12/07 04:04:11;;;;;;;11.35;9.02;;;;;;;;;;5106590;28;20028;-74
2023/12/07 04:06:37;;;;;;;12.45;7.80;;;;;;;;;;5110172;28;20384;-74
2023/12/07 04:09:04;;;;;;;13.00;9.25;;;;;;;;;;5108042;28;20031;-74
2023/12/07 04:11:30;;;;;;;11.93;8.55;;;;;;;;;;5108987;28;20541;-73
2023/12/07 04:13:56;;;;;;;15.32;9.50;;;;;;;;;;5100183;28;20031;-74
2023/12/07 04:16:22;;;;;;;12.13;8.45;;;;;;;;;;5106901;28;20023;-73
2023/12/07 04:18:50;;;;;;;10.63;7.97;;;;;;;;;;5110201;28;20380;-74
2023/12/07 04:21:16;;;;;;;12.60;8.23;;;;;;;;;;5111004;28;20070;-74
2023/12/07 04:23:42;;;;;;;13.95;8.63;;;;;;;;;;5111745;28;20039;-74
2023/12/07 04:26:08;;;;;;;13.20;8.57;;;;;;;;;;5109544;28;20031;-74
2023/12/07 04:28:34;;;;;;;14.70;9.68;;;;;;;;;;5106913;28;20465;-74
2023/12/07 04:31:00;;;;;;;15.73;9.52;;;;;;;;;;5097005;28;20097;-74
2023/12/07 04:33:26;;;;;;;15.45;9.20;;;;;;;;;;5109598;28;20047;-74
2023/12/07 04:35:52;;;;;;;12.40;9.07;;;;;;;;;;5110548;28;20046;-74
2023/12/07 04:38:18;;;;;;;16.90;9.80;;;;;;;;;;5101649;28;20191;-74
2023/12/07 04:40:45;;;;;;;15.23;9.82;;;;;;;;;;5111746;28;20076;-74
2023/12/07 04:43:11;;;;;;;15.75;10.02;;;;;;;;;;5107820;28;20028;-74
2023/12/07 04:45:37;;;;;;;15.18;10.00;;;;;;;;;;5108367;28;20053;-74
2023/12/07 04:48:04;;;;;;;13.77;10.13;;;;;;;;;;5090465;28;20039;-73
2023/12/07 04:50:30;;;;;;;15.75;9.88;;;;;;;;;;5109147;28;20120;-73
2023/12/07 04:52:57;;;;;;;13.52;9.75;;;;;;;;;;5106081;28;20031;-75
2023/12/07 04:55:23;;;;;;;15.30;10.25;;;;;;;;;;5110583;28;20039;-73
2023/12/07 04:57:49;;;;;;;19.67;11.30;;;;;;;;;;5100751;28;20056;-74
2023/12/07 05:00:15;;;;;;;17.13;10.82;;;;;;;;;;5105614;28;20050;-73
2023/12/07 05:02:41;;;;;;;15.20;10.38;;;;;;;;;;5094174;28;20043;-73
2023/12/07 05:05:08;;;;;;;18.15;11.05;;;;;;;;;;5110007;28;20052;-74
2023/12/07 05:07:34;;;;;;;14.85;10.88;;;;;;;;;;5107472;28;20403;-73
2023/12/07 05:10:00;;;;;;;13.75;10.02;;;;;;;;;;5106704;28;20028;-74
2023/12/07 05:12:29;;;;;;;12.98;9.63;;;;;;;;;;5109973;28;20040;-74
2023/12/07 05:14:55;;;;;;;13.90;9.77;;;;;;;;;;5106751;28;20024;-74
2023/12/07 05:17:21;;;;;;;14.98;10.30;;;;;;;;;;5108868;28;20095;-74
2023/12/07 05:19:47;;;;;;;18.38;10.88;;;;;;;;;;5107699;28;20081;-73
2023/12/07 05:22:15;;;;;;;15.50;10.48;;;;;;;;;;5104924;28;20032;-74
2023/12/07 05:24:42;;;;;;;12.73;9.85;;;;;;;;;;5108892;28;20069;-74
2023/12/07 05:27:08;;;;;;;13.18;10.18;;;;;;;;;;5110344;28;20040;-74
2023/12/07 05:29:34;;;;;;;13.65;9.60;;;;;;;;;;5104778;28;20055;-74
2023/12/07 05:32:00;;;;;;;16.50;10.77;;;;;;;;;;5103550;28;20040;-74
2023/12/07 05:34:26;;;;;;;22.45;14.20;;;;;;;;;;5108280;28;20027;-75
2023/12/07 05:36:52;;;;;;;21.67;13.48;;;;;;;;;;5094461;28;20782;-75
2023/12/07 05:39:18;;;;;;;18.90;12.68;;;;;;;;;;5097994;28;20388;-75
2023/12/07 05:41:46;;;;;;;19.63;12.90;;;;;;;;;;5109690;28;20482;-74
2023/12/07 05:44:12;;;;;;;25.17;16.08;;;;;;;;;;5103829;28;20381;-74
2023/12/07 05:46:43;;;;;;;24.38;14.27;;;;;;;;;;5093010;28;20034;-75
2023/12/07 05:49:09;;;;;;;17.58;12.48;;;;;;;;;;5098216;28;20131;-74
2023/12/07 05:51:35;;;;;;;18.95;11.30;;;;;;;;;;5108563;28;20209;-76
2023/12/07 05:54:03;;;;;;;24.65;13.88;;;;;;;;;;5102633;28;20077;-79
2023/12/07 05:56:31;;;;;;;46.63;24.60;;;;;;;;;;5108417;28;20073;-77
2023/12/07 05:58:57;;;;;;;93.75;50.90;;;;;;;;;;5104612;28;20116;-75
2023/12/07 06:01:24;;;;;;;15.98;11.88;;;;;;;;;;5101395;28;20032;-75
2023/12/07 06:03:50;;;;;;;17.63;10.75;;;;;;;;;;5100797;28;20432;-75
2023/12/07 06:06:17;;;;;;;13.98;9.60;;;;;;;;;;5102201;28;20032;-75
2023/12/07 06:08:44;;;;;;;17.35;10.40;;;;;;;;;;5109457;28;20397;-74
2023/12/07 06:11:10;;;;;;;20.02;10.77;;;;;;;;;;5108085;28;20038;-74
2023/12/07 06:13:36;;;;;;;15.18;9.85;;;;;;;;;;5098470;28;20047;-74
2023/12/07 06:16:02;;;;;;;17.25;10.27;;;;;;;;;;5099455;28;20550;-74
2023/12/07 06:18:28;;;;;;;15.75;10.23;;;;;;;;;;5094960;28;20036;-74
2023/12/07 06:20:54;;;;;;;13.38;9.73;;;;;;;;;;5099731;28;20047;-74
2023/12/07 06:23:21;;;;;;;15.52;10.57;;;;;;;;;;5106083;28;20019;-75
2023/12/07 06:25:47;;;;;;;16.58;10.13;;;;;;;;;;5109845;28;20035;-74
2023/12/07 06:28:13;;;;;;;13.43;10.25;;;;;;;;;;5102882;28;20024;-74
2023/12/07 06:30:39;;;;;;;21.00;13.13;;;;;;;;;;5103719;28;20501;-83
2023/12/07 06:33:05;;;;;;;15.68;10.15;;;;;;;;;;5104631;28;20038;-75
2023/12/07 06:35:31;;;;;;;16.63;10.50;;;;;;;;;;5108514;28;20043;-77
2023/12/07 06:37:57;;;;;;;16.02;9.27;;;;;;;;;;5093898;28;20110;-72
2023/12/07 06:40:23;;;;;;;16.15;10.25;;;;;;;;;;5110566;28;20035;-75
2023/12/07 06:42:49;;;;;;;12.88;10.05;;;;;;;;;;5098998;28;20032;-73
2023/12/07 06:45:16;;;;;;;33.58;11.77;;;;;;;;;;5099997;28;20032;-75
2023/12/07 06:47:43;;;;;;;18.45;11.77;;;;;;;;;;5107175;28;20044;-74
2023/12/07 06:50:12;;;;;;;18.50;11.18;;;;;;;;;;5107466;28;20043;-74
2023/12/07 06:52:39;;;;;;;15.95;11.20;;;;;;;;;;5105511;28;20601;-75
2023/12/07 06:55:05;;;;;;;22.35;14.55;;;;;;;;;;5101725;28;20027;-75
2023/12/07 06:57:31;;;;;;;20.92;13.95;;;;;;;;;;5106544;28;20403;-74
2023/12/07 06:59:57;;;;;;;18.33;13.35;;;;;;;;;;5103427;28;20039;-74
2023/12/07 07:02:23;;;;;;;19.83;13.75;;;;;;;;;;5102498;28;20058;-74
2023/12/07 07:04:50;;;;;;;24.98;14.43;;;;;;;;;;5111294;28;20038;-75
2023/12/07 07:07:16;;;;;;;24.40;13.85;;;;;;;;;;5113264;28;20719;-74
2023/12/07 07:09:42;;;;;;;19.98;13.15;;;;;;;;;;5104861;28;20048;-75
2023/12/07 07:12:08;;;;;;;23.83;14.45;;;;;;;;;;5096364;28;20401;-74
2023/12/07 07:14:38;;;;;;;20.77;14.57;;;;;;;;;;5093661;28;20020;-75
2023/12/07 07:17:04;;;;;;;21.65;14.18;;;;;;;;;;5110391;28;20035;-74
2023/12/07 07:19:31;;;;;;;27.75;15.43;;;;;;;;;;5106411;28;20035;-75
2023/12/07 07:21:57;;;;;;;22.30;14.68;;;;;;;;;;5107292;28;20054;-75
2023/12/07 07:24:23;;;;;;;24.92;14.57;;;;;;;;;;5111552;28;20027;-75
2023/12/07 07:26:49;;;;;;;22.50;13.48;;;;;;;;;;5110451;28;20028;-75
2023/12/07 07:29:15;;;;;;;22.38;13.77;;;;;;;;;;5106560;28;20097;-75
2023/12/07 07:31:43;;;;;;;23.73;15.80;;;;;;;;;;5112095;28;20035;-75
2023/12/07 07:34:09;;;;;;;23.88;16.05;;;;;;;;;;5101985;28;20430;-74
2023/12/07 07:36:35;;;;;;;23.30;15.38;;;;;;;;;;5110911;28;20485;-74
2023/12/07 07:39:01;;;;;;;21.38;13.73;;;;;;;;;;5111998;28;20031;-74
2023/12/07 07:41:27;;;;;;;20.35;14.23;;;;;;;;;;5103549;28;20497;-74
2023/12/07 07:43:53;;;;;;;23.55;13.90;;;;;;;;;;5103701;28;20036;-74
2023/12/07 07:46:19;;;;;;;21.38;14.25;;;;;;;;;;5104379;28;20096;-74
2023/12/07 07:48:45;;;;;;;21.60;14.38;;;;;;;;;;5107700;28;20043;-74
2023/12/07 07:51:11;;;;;;;22.05;14.00;;;;;;;;;;5110098;28;20043;-74
2023/12/07 07:53:37;;;;;;;21.40;13.93;;;;;;;;;;5092832;28;20473;-75
2023/12/07 07:56:03;;;;;;;21.35;13.50;;;;;;;;;;5109625;28;20516;-74
2023/12/07 07:58:29;;;;;;;19.60;13.13;;;;;;;;;;5112145;28;20039;-74
2023/12/07 08:00:55;;;;;;;21.05;13.20;;;;;;;;;;5103114;28;20058;-74
2023/12/07 08:03:21;;;;;;;20.38;13.35;;;;;;;;;;5110754;28;20024;-75
2023/12/07 08:05:48;;;;;;;22.88;13.02;;;;;;;;;;5106228;28;20024;-75
2023/12/07 08:08:14;;;;;;;21.83;14.35;;;;;;;;;;5104203;28;20047;-75
2023/12/07 08:10:40;;;;;;;37.92;20.10;;;;;;;;;;5108173;28;20039;-75
2023/12/07 08:13:07;;;;;;;76.85;40.15;;;;;;;;;;5103656;28;20043;-77
2023/12/07 08:15:34;;;;;;;51.80;26.33;;;;;;;;;;5104529;28;20114;-76
2023/12/07 08:18:01;;;;;;;127.63;67.35;;;;;;;;;;5103243;28;20027;-76
2023/12/07 08:20:27;;;;;;;68.70;33.70;;;;;;;;;;5109681;28;20515;-76
2023/12/07 08:22:54;;;;;;;55.92;29.40;;;;;;;;;;5103711;28;20043;-76
2023/12/07 08:25:21;;;;;;;53.35;26.60;;;;;;;;;;5104056;28;20040;-76
2023/12/07 08:27:47;;;;;;;47.35;25.90;;;;;;;;;;5097411;28;20032;-76
2023/12/07 08:30:14;;;;;;;31.17;20.70;;;;;;;;;;5107759;28;20034;-74
2023/12/07 08:32:40;;;;;;;33.92;20.75;;;;;;;;;;5108071;28;20027;-72
2023/12/07 08:35:06;;;;;;;37.05;21.45;;;;;;;;;;5096671;28;20028;-75
2023/12/07 08:37:33;;;;;;;65.55;35.60;;;;;;;;;;5111627;28;20047;-75
2023/12/07 08:39:59;;;;;;;31.48;19.25;;;;;;;;;;5088962;28;20481;-74
2023/12/07 08:42:31;;;;;;;36.67;19.63;;;;;;;;;;5108408;28;20024;-75
2023/12/07 08:44:57;;;;;;;28.42;18.17;;;;;;;;;;5106081;28;20035;-75
2023/12/07 08:47:27;;;;;;;34.90;19.15;;;;;;;;;;5109979;28;20046;-74
2023/12/07 08:49:53;;;;;;;33.15;21.48;;;;;;;;;;5108819;28;20036;-75
2023/12/07 08:52:20;;;;;;;39.45;24.00;;;;;;;;;;5101738;28;20055;-75
2023/12/07 08:54:47;;;;;;;42.95;24.98;;;;;;;;;;5109444;28;20035;-75
2023/12/07 08:57:18;;;;;;;83.85;45.28;;;;;;;;;;5105939;28;20040;-75
2023/12/07 08:59:45;;;;;;;52.20;30.20;;;;;;;;;;5109054;28;20370;-75
2023/12/07 09:02:12;;;;;;;40.97;22.73;;;;;;;;;;5103967;28;20031;-75
2023/12/07 09:04:39;;;;;;;31.33;21.33;;;;;;;;;;5109098;28;20085;-75
2023/12/07 09:07:05;;;;;;;34.25;20.90;;;;;;;;;;5109956;28;20028;-74
2023/12/07 09:09:32;;;;;;;37.17;23.00;;;;;;;;;;5094856;28;20055;-74
2023/12/07 09:11:58;;;;;;;35.95;22.35;;;;;;;;;;5107737;28;20468;-73
2023/12/07 09:14:26;;;;;;;44.75;22.70;;;;;;;;;;5110167;28;20019;-74
2023/12/07 09:16:52;;;;;;;35.70;23.75;;;;;;;;;;5103783;28;20046;-73
2023/12/07 09:19:18;;;;;;;29.00;19.67;;;;;;;;;;5103394;28;20037;-74
2023/12/07 09:21:44;;;;;;;30.40;18.60;;;;;;;;;;5105254;28;20060;-74
2023/12/07 09:24:10;;;;;;;26.75;18.40;;;;;;;;;;5107613;28;20038;-74
2023/12/07 09:26:38;;;;;;;34.72;21.55;;;;;;;;;;5102746;28;20114;-74
2023/12/07 09:29:04;;;;;;;45.25;23.85;;;;;;;;;;5095950;28;20028;-75
2023/12/07 09:31:32;;;;;;;30.23;19.33;;;;;;;;;;5098774;28;20071;-74
2023/12/07 09:33:58;;;;;;;27.45;17.70;;;;;;;;;;5100017;28;20064;-74
2023/12/07 09:36:26;;;;;;;28.55;17.65;;;;;;;;;;5105168;28;20042;-74
2023/12/07 09:38:52;;;;;;;27.92;18.63;;;;;;;;;;5110188;28;20537;-75
2023/12/07 09:41:20;;;;;;;28.58;19.38;;;;;;;;;;5109000;28;20063;-76
2023/12/07 09:43:46;;;;;;;30.42;18.80;;;;;;;;;;5107404;28;20080;-73
2023/12/07 09:46:13;;;;;;;38.42;24.00;;;;;;;;;;5103890;28;20035;-72
2023/12/07 09:48:41;;;;;;;31.15;21.08;;;;;;;;;;5104931;28;20046;-75
2023/12/07 09:51:07;;;;;;;41.25;23.13;;;;;;;;;;5100019;28;20052;-75
2023/12/07 09:53:34;;;;;;;41.50;23.33;;;;;;;;;;5106388;28;20814;-75
2023/12/07 09:56:00;;;;;;;38.30;22.58;;;;;;;;;;5099496;28;20121;-73
2023/12/07 09:58:27;;;;;;;60.58;28.55;;;;;;;;;;5106315;28;20489;-74
2023/12/07 10:00:55;;;;;;;30.30;19.77;;;;;;;;;;5105458;28;20040;-74
2023/12/07 10:03:22;;;;;;;30.65;20.90;;;;;;;;;;5106125;28;20027;-74
2023/12/07 10:06:01;;;;;;;32.25;20.02;;;;;;;;;;5105302;28;20036;-73
2023/12/07 10:08:31;;;;;;;30.73;21.48;;;;;;;;;;5101780;28;20023;-72
2023/12/07 10:11:10;;;;;;;38.53;22.13;;;;;;;;;;5104967;28;20070;-72
2023/12/07 10:13:37;;;;;;;29.25;20.83;;;;;;;;;;5106507;28;20040;-71
2023/12/07 10:16:07;;;;;;;31.05;20.27;;;;;;;;;;5098770;28;20046;-72
2023/12/07 10:18:33;;;;;;;34.75;21.02;;;;;;;;;;5105934;28;20035;-76
2023/12/07 10:20:59;;;;;;;31.50;21.75;;;;;;;;;;5109399;28;20045;-72
2023/12/07 10:23:27;;;;;;;34.42;21.02;;;;;;;;;;5105065;28;20050;-73
2023/12/07 10:25:54;;;;;;;30.90;21.25;;;;;;;;;;5102164;28;20039;-73
2023/12/07 10:28:20;;;;;;;28.15;20.40;;;;;;;;;;5103286;28;20031;-72
2023/12/07 10:30:46;;;;;;;27.13;18.23;;;;;;;;;;5103803;28;20032;-73
2023/12/07 10:33:13;;;;;;;31.92;21.35;;;;;;;;;;5108889;28;20106;-72
2023/12/07 10:35:45;;;;;;;28.67;19.13;;;;;;;;;;5111545;28;20028;-74
2023/12/07 10:38:14;;;;;;;34.25;22.88;;;;;;;;;;5105961;28;20074;-74
2023/12/07 10:40:41;;;;;;;27.02;17.55;;;;;;;;;;5100911;28;20036;-74
2023/12/07 10:43:08;;;;;;;76.03;43.40;;;;;;;;;;5101279;28;20028;-74
2023/12/07 10:45:35;;;;;;;24.60;18.20;;;;;;;;;;5092863;28;20028;-74
2023/12/07 10:48:07;;;;;;;25.13;18.75;;;;;;;;;;5102591;28;20435;-74
2023/12/07 10:50:35;;;;;;;20.50;15.45;;;;;;;;;;5109679;28;20032;-74
2023/12/07 10:53:05;;;;;;;26.38;16.30;;;;;;;;;;5106196;28;20535;-74
2023/12/07 10:55:34;;;;;;;19.45;15.20;;;;;;;;;;5108407;28;20476;-75
2023/12/07 10:58:01;;;;;;;20.42;15.10;;;;;;;;;;5108540;28;20024;-75
2023/12/07 11:00:27;;;;;;;21.65;15.45;;;;;;;;;;5105019;28;20440;-75
2023/12/07 11:02:54;;;;;;;18.67;13.98;;;;;;;;;;5104249;28;20039;-74
2023/12/07 11:05:21;;;;;;;21.17;16.38;;;;;;;;;;5109804;28;20035;-75
2023/12/07 11:07:47;;;;;;;23.77;14.77;;;;;;;;;;5110338;28;20043;-74
2023/12/07 11:10:22;;;;;;;24.13;17.20;;;;;;;;;;5112115;28;20032;-75
2023/12/07 11:12:56;;;;;;;37.95;24.48;;;;;;;;;;5110977;28;20481;-74
2023/12/07 11:15:22;;;;;;;55.05;30.67;;;;;;;;;;5110236;28;20039;-74
2023/12/07 11:17:55;;;;;;;67.50;37.97;;;;;;;;;;5107473;28;20362;-75
2023/12/07 11:20:22;;;;;;;23.98;17.88;;;;;;;;;;5111544;28;20485;-75
2023/12/07 11:22:51;;;;;;;20.65;16.30;;;;;;;;;;5107962;28;21338;-75
2023/12/07 11:25:18;;;;;;;19.55;15.65;;;;;;;;;;5102111;28;20028;-75
2023/12/07 11:27:47;;;;;;;22.88;16.30;;;;;;;;;;5109582;28;20493;-75
2023/12/07 11:30:17;;;;;;;19.92;16.08;;;;;;;;;;5111930;28;20403;-75
2023/12/07 11:32:44;;;;;;;21.85;16.33;;;;;;;;;;5111238;28;20118;-81
2023/12/07 11:35:12;;;;;;;21.80;16.83;;;;;;;;;;5109993;28;20023;-75
2023/12/07 11:37:57;;;;;;;50.22;16.05;;;;;;;;;;5109729;28;20123;-77
2023/12/07 11:40:25;;;;;;;56.97;14.25;;;;;;;;;;5110306;28;20032;-75
2023/12/07 11:42:51;;;;;;;74.68;15.10;;;;;;;;;;5101243;28;20498;-82
2023/12/07 11:45:36;;;;;;;66.10;15.90;;;;;;;;;;5108793;28;20031;-74
2023/12/07 11:48:06;;;;;;;94.18;17.92;;;;;;;;;;5111709;28;20114;-80
2023/12/07 11:50:33;;;;;;;46.55;14.75;;;;;;;;;;5107845;28;20444;-74
2023/12/07 11:52:59;;;;;;;60.42;14.25;;;;;;;;;;5104662;28;20043;-74
2023/12/07 11:55:25;;;;;;;50.97;13.98;;;;;;;;;;5100363;28;20054;-74
2023/12/07 11:57:53;;;;;;;110.00;16.95;;;;;;;;;;5105441;28;20039;-74
2023/12/07 12:00:19;;;;;;;114.25;16.27;;;;;;;;;;5110633;28;20035;-73
2023/12/07 12:02:48;;;;;;;55.83;15.45;;;;;;;;;;5106943;28;20047;-74
2023/12/07 12:05:14;;;;;;;45.95;16.42;;;;;;;;;;5110707;28;20030;-73
2023/12/07 12:07:40;;;;;;;28.38;15.43;;;;;;;;;;5107832;28;20031;-75
2023/12/07 12:10:06;;;;;;;44.50;15.55;;;;;;;;;;5093065;28;20786;-76
2023/12/07 12:12:35;;;;;;;57.80;15.88;;;;;;;;;;5109715;28;20036;-74
2023/12/07 12:15:01;;;;;;;146.50;17.52;;;;;;;;;;5107002;28;20475;-74
2023/12/07 12:17:27;;;;;;;69.07;17.00;;;;;;;;;;5106164;28;20393;-73
2023/12/07 12:19:58;;;;;;;73.80;16.02;;;;;;;;;;5096986;28;20035;-74
2023/12/07 15:15:15;;;;;;;40.88;23.23;;;;;;;;;;6009537;23;20278;31
2023/12/07 15:17:41;;;;;;;36.42;21.35;;;;;;;;;;4928122;29;20462;-71
2023/12/07 15:20:08;;;;;;;43.38;22.38;;;;;;;;;;4919120;29;20389;-73
2023/12/07 15:22:35;;;;;;;43.80;21.17;;;;;;;;;;4929302;29;20037;-72
2023/12/07 15:25:01;;;;;;;43.22;24.08;;;;;;;;;;4920928;29;20024;-73
2023/12/07 15:27:27;;;;;;;43.20;22.70;;;;;;;;;;4934802;29;20027;-72
2023/12/07 15:29:53;;;;;;;54.05;23.02;;;;;;;;;;4935606;29;20032;-72
2023/12/07 15:32:19;;;;;;;49.03;25.70;;;;;;;;;;4926417;29;20043;-70
2023/12/07 15:34:45;;;;;;;57.38;27.02;;;;;;;;;;4928366;29;20032;-71
2023/12/07 15:37:12;;;;;;;52.38;24.42;;;;;;;;;;4933619;29;20039;-69
2023/12/07 15:39:38;;;;;;;89.15;41.40;;;;;;;;;;4935343;29;20379;-71
2023/12/07 15:42:04;;;;;;;84.70;37.83;;;;;;;;;;4935254;29;20038;-71
2023/12/07 15:44:30;;;;;;;72.50;33.70;;;;;;;;;;4935017;29;20043;-69
2023/12/07 15:46:56;;;;;;;79.30;34.38;;;;;;;;;;4934459;29;20393;-71
2023/12/07 15:49:22;;;;;;;101.57;39.95;;;;;;;;;;4918469;29;20397;-67
2023/12/07 15:51:48;;;;;;;87.60;36.55;;;;;;;;;;4935195;29;20028;-69
2023/12/07 15:54:14;;;;;;;86.15;41.22;;;;;;;;;;4935740;29;20071;-71
2023/12/07 15:56:41;;;;;;;73.18;34.45;;;;;;;;;;4919369;29;20036;-72
2023/12/07 15:59:07;;;;;;;70.10;32.42;;;;;;;;;;4932923;29;20023;-72
2023/12/07 16:01:33;;;;;;;92.25;41.08;;;;;;;;;;4934944;29;20040;-73
2023/12/07 16:03:59;;;;;;;80.75;32.92;;;;;;;;;;4934994;29;20166;-71
2023/12/07 16:06:25;;;;;;;77.57;32.65;;;;;;;;;;4927989;29;20035;-70
2023/12/07 16:08:51;;;;;;;83.68;36.28;;;;;;;;;;4928668;29;20036;-71
2023/12/07 16:11:17;;;;;;;94.05;34.45;;;;;;;;;;4933551;29;20038;-67
2023/12/07 16:13:43;;;;;;;79.40;32.28;;;;;;;;;;4930607;29;20059;-72
2023/12/07 16:16:09;;;;;;;103.50;36.80;;;;;;;;;;4933927;29;20051;-72
2023/12/07 16:18:35;;;;;;;86.18;32.92;;;;;;;;;;4938245;29;20381;-72
2023/12/07 16:21:01;;;;;;;83.38;33.20;;;;;;;;;;4930557;29;20103;-72
2023/12/07 16:23:27;;;;;;;94.20;31.90;;;;;;;;;;4916354;29;20376;-72
2023/12/07 16:25:53;;;;;;;87.32;34.60;;;;;;;;;;4926352;29;20517;-72
2023/12/07 16:28:19;;;;;;;98.25;37.35;;;;;;;;;;4933766;29;20493;-72
2023/12/07 16:30:45;;;;;;;104.53;38.42;;;;;;;;;;4927083;29;20032;-72
2023/12/07 16:33:11;;;;;;;125.22;42.55;;;;;;;;;;4933866;29;20030;-72
2023/12/07 16:35:37;;;;;;;103.07;38.03;;;;;;;;;;4933883;29;20024;-72
2023/12/07 16:38:03;;;;;;;89.35;36.92;;;;;;;;;;4933253;29;20059;-72
2023/12/07 16:40:29;;;;;;;74.78;30.65;;;;;;;;;;4912825;29;20138;-71
2023/12/07 16:42:56;;;;;;;78.90;33.13;;;;;;;;;;4930872;29;20086;-71
2023/12/07 16:45:22;;;;;;;82.70;36.75;;;;;;;;;;4931982;29;20030;-72
2023/12/07 16:47:49;;;;;;;86.55;37.35;;;;;;;;;;4929792;29;20036;-66
2023/12/07 16:50:16;;;;;;;87.10;35.97;;;;;;;;;;4933947;29;20083;-70
2023/12/07 16:52:42;;;;;;;76.57;36.13;;;;;;;;;;4927295;29;20039;-73
2023/12/07 16:55:08;;;;;;;86.40;34.70;;;;;;;;;;4913413;29;20035;-72
2023/12/07 16:57:34;;;;;;;87.72;38.50;;;;;;;;;;4926938;29;20048;-70
2023/12/07 17:00:00;;;;;;;90.28;37.88;;;;;;;;;;4911195;29;20037;-71
2023/12/07 17:02:26;;;;;;;68.57;32.78;;;;;;;;;;4909204;29;20522;-73
2023/12/07 17:04:52;;;;;;;87.53;37.95;;;;;;;;;;4906061;29;20032;-74
2023/12/07 17:07:18;;;;;;;72.35;34.60;;;;;;;;;;4913347;29;20033;-74
2023/12/07 17:09:45;;;;;;;67.07;32.05;;;;;;;;;;4910063;29;20032;-72
2023/12/07 17:12:11;;;;;;;60.55;29.13;;;;;;;;;;4903899;29;20470;-73